createdAt,value
2023-01-02T00:26:17.962Z,14.2
2023-01-02T00:55:31.165Z,13.6
2023-01-02T01:24:46.468Z,13.6
2023-01-02T01:54:02.296Z,13.6
2023-01-02T02:23:17.897Z,14.1
2023-01-02T02:52:40.872Z,14.3
2023-01-02T03:22:02.707Z,13.9
2023-01-02T03:51:20.602Z,13.5
2023-01-02T04:20:37.341Z,13.9
2023-01-02T04:49:58.188Z,13.9
2023-01-02T05:19:13.678Z,12.9
2023-01-02T05:48:33.772Z,12.9
2023-01-02T06:17:55.829Z,13.3
2023-01-02T06:47:17.611Z,13.7
2023-01-02T07:16:39.301Z,13.5
2023-01-02T07:45:51.356Z,12.7
2023-01-02T08:14:36.590Z,12.4
2023-01-02T08:43:46.175Z,12.3
2023-01-02T09:13:09.424Z,12.3
2023-01-02T09:42:20.898Z,12.2
2023-01-02T10:11:34.139Z,13
2023-01-02T10:40:44.519Z,15.3
2023-01-02T11:10:02.339Z,16.2
2023-01-02T11:39:25.399Z,16.2
2023-01-02T12:08:52.056Z,16.1
2023-01-02T12:37:37.845Z,16.1
2023-01-02T13:06:58.412Z,15.4
2023-01-02T13:36:21.076Z,15
2023-01-02T14:05:37.204Z,14.3
2023-01-02T14:34:58.433Z,13.2
2023-01-02T15:04:15.829Z,12.5
2023-01-02T15:33:33.432Z,12.6
2023-01-02T16:02:54.262Z,12.5
2023-01-02T16:32:04.393Z,12.5
2023-01-02T17:01:25.510Z,12.3
2023-01-02T17:30:27.200Z,12
2023-01-02T17:59:43.209Z,11.6
2023-01-02T18:29:10.267Z,11.4
2023-01-02T18:57:49.778Z,11.3
2023-01-02T19:27:01.868Z,11
2023-01-02T19:56:11.478Z,10.9
2023-01-02T20:25:24.836Z,10.7
2023-01-02T20:54:33.387Z,10.6
2023-01-02T21:23:44.672Z,10.4
2023-01-02T21:52:54.508Z,10.1
2023-01-02T22:22:07.498Z,9.9
2023-01-02T22:51:14.790Z,9.7
2023-01-02T23:20:26.364Z,9.4
2023-01-02T23:49:42.813Z,9.2
